Time;durP1;ratioP1;P1;durP2;ratioP2;P2;SDS_P1;SDS_P2;PMS_P1;PMS_P2;Temp;Humidity;BMP_temperature;BMP_pressure;BME280_temperature;BME280_humidity;BME280_pressure;Samples;Min_cycle;Max_cycle;Signal;HPM_P1;HPM_P2
2023/03/27 00:01:48;;;;;;;;;;;;;;;14.47;52.55;101325.78;4985063;28;19989;-47
2023/03/27 00:04:14;;;;;;;;;;;;;;;14.43;52.98;101329.91;4983961;28;19921;-48
2023/03/27 00:06:40;;;;;;;;;;;;;;;14.13;54.08;101330.38;4981877;28;19920;-50
2023/03/27 00:09:07;;;;;;;;;;;;;;;14.33;53.77;101334.91;4986298;28;19957;-49
2023/03/27 00:11:33;;;;;;;;;;;;;;;14.30;53.75;101346.06;4987958;28;19914;-54
2023/03/27 00:13:58;;;;;;;;;;;;;;;14.74;53.62;101351.84;4984669;28;19918;-53
2023/03/27 00:16:25;;;;;;;;;;;;;;;15.25;52.49;101355.63;4985230;28;19985;-51
2023/03/27 00:18:51;;;;;;;;;;;;;;;14.59;53.86;101354.75;4984184;28;19914;-50
2023/03/27 00:21:16;;;;;;;;;;;;;;;15.10;53.12;101361.25;4988906;28;19943;-51
2023/03/27 00:23:42;;;;;;;;;;;;;;;15.25;53.27;101360.16;4984217;28;20381;-52
2023/03/27 00:26:07;;;;;;;;;;;;;;;15.22;53.68;101364.09;4985921;28;19918;-48
2023/03/27 00:28:34;;;;;;;;;;;;;;;14.91;53.93;101362.97;4990148;28;20038;-53
2023/03/27 00:30:59;;;;;;;;;;;;;;;14.84;54.08;101368.38;4970870;28;19918;-49
2023/03/27 00:33:25;;;;;;;;;;;;;;;14.67;54.48;101373.34;4982963;28;19921;-48
2023/03/27 00:35:52;;;;;;;;;;;;;;;14.61;55.54;101377.72;4986447;28;19979;-53
2023/03/27 00:38:18;;;;;;;;;;;;;;;14.78;55.67;101388.06;5025400;28;19917;-51
2023/03/27 00:40:44;;;;;;;;;;;;;;;15.28;54.40;101381.28;5057962;28;19980;-50
2023/03/27 00:43:17;;;;;;;;;;;;;;;14.49;56.83;101382.91;5051189;28;19913;-51
2023/03/27 00:45:43;;;;;;;;;;;;;;;14.70;56.42;101382.88;5055687;28;19962;-49
2023/03/27 00:48:09;;;;;;;;;;;;;;;14.69;56.75;101381.25;5055686;28;19972;-49
2023/03/27 00:50:38;;;;;;;;;;;;;;;14.60;56.77;101386.81;5054030;28;19947;-53
2023/03/27 00:53:05;;;;;;;;;;;;;;;14.83;56.28;101384.75;5053681;28;19914;-52
2023/03/27 00:55:32;;;;;;;;;;;;;;;14.80;56.42;101393.25;5052634;28;19913;-50
2023/03/27 00:58:08;;;;;;;;;;;;;;;14.64;56.99;101381.84;5046182;28;19914;-51
2023/03/27 01:00:34;;;;;;;;;;;;;;;14.55;56.67;101385.81;5048721;28;19943;-54
2023/03/27 01:03:02;;;;;;;;;;;;;;;14.44;56.94;101388.09;5048056;28;19917;-48
2023/03/27 01:05:28;;;;;;;;;;;;;;;14.38;57.59;101397.00;5049306;28;20009;-50
2023/03/27 01:07:56;;;;;;;;;;;;;;;14.36;57.83;101393.69;5048567;28;19912;-47
2023/03/27 01:10:28;;;;;;;;;;;;;;;14.40;57.82;101399.47;5052256;28;19913;-48
2023/03/27 01:13:06;;;;;;;;;;;;;;;15.89;52.68;101415.03;5046901;28;19920;-50
2023/03/27 01:15:44;;;;;;;;;;;;;;;14.55;57.39;101412.72;5043646;28;19953;-52
2023/03/27 01:18:30;;;;;;;;;;;;;;;14.49;57.96;101425.16;5050776;28;19972;-51
2023/03/27 01:21:15;;;;;;;;;;;;;;;14.35;58.55;101418.94;5046045;28;19920;-51
2023/03/27 01:23:50;;;;;;;;;;;;;;;14.32;58.35;101425.53;5046288;28;19956;-51
2023/03/27 01:26:35;;;;;;;;;;;;;;;14.18;58.69;101430.09;5048394;28;19913;-53
2023/03/27 01:29:16;;;;;;;;;;;;;;;14.41;58.63;101431.56;5056369;28;19992;-53
2023/03/27 01:32:01;;;;;;;;;;;;;;;14.34;58.72;101436.94;5049537;28;19914;-50
2023/03/27 01:34:54;;;;;;;;;;;;;;;14.26;58.95;101433.59;5058690;28;19936;-50
2023/03/27 01:37:42;;;;;;;;;;;;;;;14.03;58.98;101437.50;5046152;28;19913;-49
2023/03/27 01:40:13;;;;;;;;;;;;;;;14.01;58.83;101440.41;4994840;28;19918;-52
2023/03/27 01:42:46;;;;;;;;;;;;;;;14.51;57.10;101447.28;4986947;28;19921;-52
2023/03/27 01:45:17;;;;;;;;;;;;;;;13.91;58.41;101446.19;4980239;28;19914;-52
2023/03/27 01:47:58;;;;;;;;;;;;;;;14.03;58.18;101441.03;4985777;28;19921;-51
2023/03/27 01:50:28;;;;;;;;;;;;;;;13.80;58.79;101454.00;4985874;28;19945;-52
2023/03/27 01:52:57;;;;;;;;;;;;;;;13.84;58.82;101453.41;5014388;28;19981;-48
2023/03/27 01:55:26;;;;;;;;;;;;;;;13.75;58.92;101450.06;4968193;28;19918;-53
2023/03/27 01:57:59;;;;;;;;;;;;;;;13.41;59.33;101443.69;4972092;28;19920;-50
2023/03/27 02:00:27;;;;;;;;;;;;;;;13.55;59.24;101444.59;4985350;28;19925;-51
2023/03/27 02:03:15;;;;;;;;;;;;;;;13.52;59.35;101455.75;4980044;28;19917;-49
2023/03/27 02:05:46;;;;;;;;;;;;;;;13.43;59.70;101457.78;4984913;28;19921;-53
2023/03/27 02:08:19;;;;;;;;;;;;;;;13.30;59.90;101455.00;4977366;28;19953;-53
2023/03/27 02:10:47;;;;;;;;;;;;;;;13.44;59.79;101461.31;4955327;28;19937;-48
2023/03/27 02:13:17;;;;;;;;;;;;;;;14.34;57.96;101471.91;4973733;28;19914;-51
2023/03/27 02:15:44;;;;;;;;;;;;;;;13.44;59.47;101469.34;4968543;28;19925;-52
2023/03/27 02:18:17;;;;;;;;;;;;;;;13.43;59.47;101471.19;4964552;28;19915;-54
2023/03/27 02:20:43;;;;;;;;;;;;;;;13.29;59.88;101474.84;4987710;28;19918;-51
2023/03/27 02:23:10;;;;;;;;;;;;;;;13.95;58.22;101478.03;4986069;28;19917;-51
2023/03/27 02:25:45;;;;;;;;;;;;;;;13.96;57.80;101482.38;4994026;28;19914;-48
2023/03/27 02:28:10;;;;;;;;;;;;;;;13.95;57.66;101484.22;4987195;28;19925;-48
2023/03/27 02:30:36;;;;;;;;;;;;;;;13.26;59.44;101491.31;4983815;28;19949;-50
2023/03/27 02:33:07;;;;;;;;;;;;;;;12.88;60.62;101489.81;5029035;28;19971;-49
2023/03/27 02:35:51;;;;;;;;;;;;;;;12.81;61.23;101499.69;4987338;28;19929;-49
2023/03/27 02:38:37;;;;;;;;;;;;;;;12.84;61.08;101494.78;4977801;28;19978;-53
2023/03/27 02:41:22;;;;;;;;;;;;;;;12.87;60.67;101497.06;4981556;28;19922;-48
2023/03/27 02:43:50;;;;;;;;;;;;;;;12.97;60.54;101499.41;4987570;28;19915;-50
2023/03/27 02:46:31;;;;;;;;;;;;;;;13.14;60.28;101509.84;4985272;28;19936;-51
2023/03/27 02:49:01;;;;;;;;;;;;;;;12.98;61.19;101510.97;4990282;28;19925;-50
2023/03/27 02:51:29;;;;;;;;;;;;;;;13.13;61.17;101524.28;4989008;28;19924;-53
2023/03/27 02:53:58;;;;;;;;;;;;;;;13.36;60.30;101518.66;4970138;28;19918;-49
2023/03/27 02:56:26;;;;;;;;;;;;;;;13.45;59.83;101520.19;4975954;28;20003;-50
2023/03/27 02:59:03;;;;;;;;;;;;;;;13.29;59.80;101520.50;4983215;28;19940;-49
2023/03/27 03:01:34;;;;;;;;;;;;;;;13.30;59.53;101524.84;4992210;28;19918;-48
2023/03/27 03:04:25;;;;;;;;;;;;;;;13.17;59.98;101530.97;4985031;28;19914;-51
2023/03/27 03:07:12;;;;;;;;;;;;;;;13.10;60.11;101530.91;4991092;28;19918;-52
2023/03/27 03:09:39;;;;;;;;;;;;;;;13.09;59.88;101531.09;4993485;28;19922;-50
2023/03/27 03:12:06;;;;;;;;;;;;;;;13.05;59.74;101536.03;5009153;28;19914;-51
2023/03/27 03:14:39;;;;;;;;;;;;;;;12.77;60.73;101540.34;4982219;28;19981;-50
2023/03/27 03:17:04;;;;;;;;;;;;;;;12.93;60.26;101542.94;5007091;28;19925;-50
2023/03/27 03:19:30;;;;;;;;;;;;;;;12.70;61.54;101542.16;4984818;28;19922;-52
2023/03/27 03:21:56;;;;;;;;;;;;;;;12.83;60.85;101552.16;4982522;28;19925;-50
2023/03/27 03:24:21;;;;;;;;;;;;;;;12.70;61.02;101558.25;4975504;28;19914;-55
2023/03/27 03:26:49;;;;;;;;;;;;;;;12.49;61.95;101556.38;4986059;28;19940;-49
2023/03/27 03:29:16;;;;;;;;;;;;;;;12.82;60.97;101555.03;4988146;28;19917;-52
2023/03/27 03:31:51;;;;;;;;;;;;;;;12.60;61.38;101555.88;4969601;28;19914;-51
2023/03/27 03:34:17;;;;;;;;;;;;;;;12.97;60.16;101565.69;4991583;28;19920;-52
2023/03/27 03:36:47;;;;;;;;;;;;;;;12.53;61.86;101572.94;4996945;28;19915;-51
2023/03/27 03:39:16;;;;;;;;;;;;;;;12.53;61.67;101572.94;4988351;28;19956;-48
2023/03/27 03:41:45;;;;;;;;;;;;;;;12.38;62.06;101579.16;4971576;28;19922;-49
2023/03/27 03:44:10;;;;;;;;;;;;;;;12.46;62.01;101584.44;4985415;28;19946;-54
2023/03/27 03:46:37;;;;;;;;;;;;;;;12.52;61.93;101590.84;4969008;28;19921;-53
2023/03/27 03:49:03;;;;;;;;;;;;;;;12.53;61.75;101587.16;4985952;28;19918;-50
2023/03/27 03:51:30;;;;;;;;;;;;;;;12.41;62.29;101594.88;4965536;28;19910;-55
2023/03/27 03:53:55;;;;;;;;;;;;;;;12.40;62.58;101589.72;4987593;28;19918;-51
2023/03/27 03:56:22;;;;;;;;;;;;;;;12.34;62.50;101591.28;4966444;28;19923;-51
2023/03/27 03:58:49;;;;;;;;;;;;;;;12.32;62.68;101602.19;4986766;28;19914;-52
2023/03/27 04:01:14;;;;;;;;;;;;;;;12.67;61.88;101601.53;4986189;28;19985;-50
2023/03/27 04:03:46;;;;;;;;;;;;;;;12.68;61.47;101611.25;4972123;28;19922;-51
2023/03/27 04:06:16;;;;;;;;;;;;;;;12.59;61.91;101609.72;4968709;28;19914;-54
2023/03/27 04:08:42;;;;;;;;;;;;;;;12.25;62.64;101619.25;4978583;28;19957;-52
2023/03/27 04:11:25;;;;;;;;;;;;;;;12.47;62.23;101620.97;4976558;28;19954;-53
2023/03/27 04:14:05;;;;;;;;;;;;;;;12.06;63.43;101621.47;4975393;28;19918;-53
2023/03/27 04:16:39;;;;;;;;;;;;;;;11.90;63.94;101628.66;5025552;28;19973;-50
2023/03/27 04:19:17;;;;;;;;;;;;;;;12.40;63.00;101633.44;4999128;28;19914;-51
2023/03/27 04:21:46;;;;;;;;;;;;;;;12.96;60.61;101639.19;4977073;28;19946;-52
2023/03/27 04:24:12;;;;;;;;;;;;;;;13.02;59.68;101633.06;4977046;28;20346;-48
2023/03/27 04:26:46;;;;;;;;;;;;;;;12.96;59.50;101648.09;4966113;28;19984;-52
2023/03/27 04:29:36;;;;;;;;;;;;;;;12.85;59.48;101648.59;5002129;28;19946;-49
2023/03/27 04:32:01;;;;;;;;;;;;;;;12.86;59.66;101652.94;4983887;28;19929;-49
2023/03/27 04:34:39;;;;;;;;;;;;;;;12.85;59.53;101653.97;4982509;28;19921;-50
2023/03/27 04:37:10;;;;;;;;;;;;;;;12.80;59.56;101659.06;4995294;28;19922;-51
2023/03/27 04:39:42;;;;;;;;;;;;;;;12.82;59.41;101660.56;4979931;28;20419;-50
2023/03/27 04:42:09;;;;;;;;;;;;;;;12.83;59.51;101664.06;4991425;28;19921;-50
2023/03/27 04:44:36;;;;;;;;;;;;;;;12.81;59.58;101671.47;4978705;28;19953;-53
2023/03/27 04:47:03;;;;;;;;;;;;;;;12.72;59.59;101665.38;4985608;28;19948;-50
2023/03/27 04:49:29;;;;;;;;;;;;;;;12.93;59.20;101674.50;5014844;28;19922;-52
2023/03/27 04:52:01;;;;;;;;;;;;;;;12.82;59.44;101668.63;4979977;28;19918;-52
2023/03/27 04:54:30;;;;;;;;;;;;;;;12.97;58.73;101675.78;4985286;28;19968;-51
2023/03/27 04:56:56;;;;;;;;;;;;;;;12.44;60.21;101680.34;4980746;28;19918;-49
2023/03/27 04:59:21;;;;;;;;;;;;;;;12.93;59.72;101687.91;4980038;28;19924;-53
2023/03/27 05:02:07;;;;;;;;;;;;;;;12.87;59.19;101682.28;4985558;28;19914;-47
2023/03/27 05:04:41;;;;;;;;;;;;;;;12.65;60.15;101677.91;4999627;28;19922;-50
2023/03/27 05:07:14;;;;;;;;;;;;;;;12.61;59.72;101688.19;4985889;28;19914;-48
2023/03/27 05:09:40;;;;;;;;;;;;;;;12.94;59.54;101692.25;4993369;28;19961;-52
2023/03/27 05:12:06;;;;;;;;;;;;;;;12.75;59.73;101695.38;4962166;28;19914;-51
2023/03/27 05:14:38;;;;;;;;;;;;;;;12.82;59.48;101699.97;4980681;28;19914;-50
2023/03/27 05:17:09;;;;;;;;;;;;;;;12.71;60.18;101695.94;4977849;28;19918;-51
2023/03/27 05:19:38;;;;;;;;;;;;;;;12.22;60.54;101700.91;4981475;28;19918;-51
2023/03/27 05:22:04;;;;;;;;;;;;;;;11.85;62.75;101698.06;4972278;28;20006;-52
2023/03/27 05:24:30;;;;;;;;;;;;;;;12.74;60.61;101707.13;4962943;28;20045;-49
2023/03/27 05:26:55;;;;;;;;;;;;;;;12.80;59.94;101712.75;4979426;28;19918;-51
2023/03/27 05:29:20;;;;;;;;;;;;;;;13.11;59.02;101719.69;5001221;28;19914;-49
2023/03/27 05:31:54;;;;;;;;;;;;;;;12.40;61.20;101724.66;4968807;28;19914;-48
2023/03/27 05:34:38;;;;;;;;;;;;;;;12.33;61.45;101723.72;4974544;28;19952;-51
2023/03/27 05:37:07;;;;;;;;;;;;;;;12.29;61.88;101731.31;4965853;28;19914;-50
2023/03/27 05:39:46;;;;;;;;;;;;;;;12.82;61.05;101742.94;4986638;28;19926;-48
2023/03/27 05:42:13;;;;;;;;;;;;;;;13.04;59.86;101741.13;5000089;28;20771;-51
2023/03/27 05:44:39;;;;;;;;;;;;;;;13.19;59.63;101743.75;4987461;28;19918;-48
2023/03/27 05:47:06;;;;;;;;;;;;;;;13.13;59.36;101741.81;4974701;28;19925;-52
2023/03/27 05:49:32;;;;;;;;;;;;;;;12.59;60.81;101744.72;4993762;28;19914;-54
2023/03/27 05:52:07;;;;;;;;;;;;;;;14.18;57.57;101747.50;4992458;28;20021;-53
2023/03/27 05:54:32;;;;;;;;;;;;;;;13.47;58.00;101748.41;4983782;28;19972;-48
2023/03/27 05:57:03;;;;;;;;;;;;;;;12.97;59.55;101749.09;4974729;28;19921;-48
2023/03/27 05:59:29;;;;;;;;;;;;;;;12.71;60.48;101750.47;4995720;28;19914;-52
2023/03/27 06:02:10;;;;;;;;;;;;;;;13.18;60.11;101755.53;4982857;28;19915;-52
2023/03/27 06:04:44;;;;;;;;;;;;;;;13.27;59.50;101757.06;4979695;28;19967;-55
2023/03/27 06:07:15;;;;;;;;;;;;;;;13.94;57.75;101756.84;4989176;28;22848;-51
2023/03/27 06:09:41;;;;;;;;;;;;;;;13.65;58.13;101763.25;5002916;28;19981;-52
2023/03/27 06:12:30;;;;;;;;;;;;;;;13.46;58.39;101766.38;4939474;28;19935;-52
2023/03/27 06:15:06;;;;;;;;;;;;;;;13.83;57.58;101770.84;4971814;28;19972;-53
2023/03/27 06:17:42;;;;;;;;;;;;;;;13.76;57.67;101768.94;4984727;28;19915;-51
2023/03/27 06:20:13;;;;;;;;;;;;;;;14.06;57.02;101770.59;4970962;28;19918;-48
2023/03/27 06:22:42;;;;;;;;;;;;;;;13.59;58.03;101780.97;4975945;28;19914;-48
2023/03/27 06:25:08;;;;;;;;;;;;;;;13.45;58.41;101780.81;4966395;28;19921;-47
2023/03/27 06:27:33;;;;;;;;;;;;;;;13.55;58.15;101783.19;4984130;28;19937;-51
2023/03/27 06:29:58;;;;;;;;;;;;;;;12.98;59.69;101784.81;4979670;28;19916;-49
2023/03/27 06:32:24;;;;;;;;;;;;;;;13.68;58.42;101795.94;4973587;28;19914;-46
2023/03/27 06:34:51;;;;;;;;;;;;;;;13.71;58.39;101789.34;4979478;28;19914;-47
2023/03/27 06:37:47;;;;;;;;;;;;;;;13.03;60.30;101785.94;4970800;28;19945;-52
2023/03/27 06:40:21;;;;;;;;;;;;;;;13.12;59.84;101793.88;4983720;28;19971;-47
2023/03/27 06:42:48;;;;;;;;;;;;;;;13.76;58.07;101803.88;4966594;28;19941;-53
2023/03/27 06:45:39;;;;;;;;;;;;;;;13.14;59.42;101799.88;4987170;28;19964;-51
2023/03/27 06:48:25;;;;;;;;;;;;;;;13.79;58.84;101813.41;4960800;28;19941;-51
2023/03/27 06:50:54;;;;;;;;;;;;;;;13.19;59.76;101803.66;4986439;28;19921;-52
2023/03/27 06:53:20;;;;;;;;;;;;;;;13.67;58.96;101812.25;4977682;28;19913;-52
2023/03/27 06:55:46;;;;;;;;;;;;;;;12.95;60.22;101812.91;4973444;28;19918;-48
2023/03/27 06:58:13;;;;;;;;;;;;;;;13.89;58.18;101821.97;4967153;28;19925;-51
2023/03/27 07:00:40;;;;;;;;;;;;;;;14.25;57.42;101805.91;4988550;28;19936;-52
2023/03/27 07:03:11;;;;;;;;;;;;;;;13.72;57.76;101812.50;4996135;28;19914;-53
2023/03/27 07:05:56;;;;;;;;;;;;;;;13.87;57.08;101812.44;4985852;28;19922;-51
2023/03/27 07:08:24;;;;;;;;;;;;;;;13.97;57.53;101821.03;4968347;28;19911;-52
2023/03/27 07:10:53;;;;;;;;;;;;;;;13.56;58.21;101825.16;4981596;28;19914;-49
2023/03/27 07:13:18;;;;;;;;;;;;;;;12.58;59.84;101817.34;4984405;28;19914;-48
2023/03/27 07:15:44;;;;;;;;;;;;;;;14.06;57.49;101845.88;5010384;28;19915;-48
2023/03/27 07:18:09;;;;;;;;;;;;;;;13.59;58.43;101840.91;4988836;28;19936;-51
2023/03/27 07:20:35;;;;;;;;;;;;;;;14.41;56.30;101843.28;4986030;28;19923;-53
2023/03/27 07:23:06;;;;;;;;;;;;;;;14.45;56.31;101849.91;4986122;28;19918;-53
2023/03/27 07:25:57;;;;;;;;;;;;;;;14.26;56.08;101856.84;4980768;28;19953;-50
2023/03/27 07:28:59;;;;;;;;;;;;;;;14.40;55.45;101851.53;5010445;28;20485;-52
2023/03/27 07:31:26;;;;;;;;;;;;;;;14.57;54.83;101860.97;4990702;28;19918;-49
2023/03/27 07:33:51;;;;;;;;;;;;;;;14.38;54.65;101859.81;4980795;28;20566;-51
2023/03/27 07:36:23;;;;;;;;;;;;;;;13.91;55.49;101854.88;4988028;28;19918;-50
2023/03/27 07:38:56;;;;;;;;;;;;;;;14.56;54.25;101861.19;4963730;28;19933;-53
2023/03/27 07:41:23;;;;;;;;;;;;;;;14.73;54.15;101857.16;4963768;28;19930;-50
2023/03/27 07:43:58;;;;;;;;;;;;;;;14.42;54.09;101868.34;4963482;28;19914;-47
2023/03/27 07:46:26;;;;;;;;;;;;;;;14.61;53.65;101864.13;4965021;28;19921;-49
2023/03/27 07:48:54;;;;;;;;;;;;;;;15.15;53.01;101861.72;4961993;28;19915;-52
2023/03/27 07:51:22;;;;;;;;;;;;;;;15.07;53.10;101869.97;4959979;28;19915;-51
2023/03/27 07:53:52;;;;;;;;;;;;;;;14.68;53.04;101862.28;4964930;28;19973;-51
2023/03/27 07:56:22;;;;;;;;;;;;;;;14.60;53.91;101878.59;4965692;28;19946;-52
2023/03/27 07:58:57;;;;;;;;;;;;;;;15.22;52.93;101886.81;4962712;28;19915;-49
2023/03/27 08:01:24;;;;;;;;;;;;;;;15.54;52.44;101879.06;4965085;28;19914;-50
2023/03/27 08:03:51;;;;;;;;;;;;;;;15.49;53.20;101884.25;4967088;28;20007;-51
2023/03/27 08:06:18;;;;;;;;;;;;;;;15.69;52.30;101875.38;4969852;28;19919;-50
2023/03/27 08:08:45;;;;;;;;;;;;;;;15.85;51.88;101879.56;4972448;28;20088;-50
2023/03/27 08:11:10;;;;;;;;;;;;;;;15.80;52.81;101888.25;4970561;28;19937;-50
2023/03/27 08:13:38;;;;;;;;;;;;;;;16.13;51.69;101898.28;4965443;28;19929;-50
2023/03/27 08:16:06;;;;;;;;;;;;;;;15.78;52.61;101901.13;4961567;28;19989;-50
2023/03/27 08:18:32;;;;;;;;;;;;;;;16.17;51.41;101904.09;4965889;28;19914;-50
2023/03/27 08:20:59;;;;;;;;;;;;;;;15.56;53.14;101898.56;4963601;28;19974;-48
2023/03/27 08:23:26;;;;;;;;;;;;;;;15.85;52.06;101904.66;4964555;28;19915;-53
2023/03/27 08:26:06;;;;;;;;;;;;;;;15.99;51.32;101899.31;4963698;28;19938;-50
2023/03/27 08:28:40;;;;;;;;;;;;;;;16.34;50.93;101899.09;4964359;28;19922;-49
2023/03/27 08:31:10;;;;;;;;;;;;;;;16.74;50.60;101901.78;4968251;28;19918;-51
2023/03/27 08:33:36;;;;;;;;;;;;;;;16.66;49.64;101906.56;4966658;28;19926;-53
2023/03/27 08:36:03;;;;;;;;;;;;;;;16.28;50.61;101908.88;4967881;28;19992;-49
2023/03/27 08:38:32;;;;;;;;;;;;;;;16.38;51.49;101910.31;5018269;28;19940;-52
2023/03/27 08:41:25;;;;;;;;;;;;;;;16.24;51.15;101914.91;5048593;28;19996;-51
2023/03/27 08:44:02;;;;;;;;;;;;;;;16.36;50.37;101915.09;5058960;28;19913;-52
2023/03/27 08:46:41;;;;;;;;;;;;;;;16.55;50.92;101921.53;5044406;28;19913;-52
2023/03/27 08:49:10;;;;;;;;;;;;;;;17.06;49.84;101923.53;5054684;28;19913;-51
2023/03/27 08:51:40;;;;;;;;;;;;;;;17.77;48.34;101934.47;5051626;28;19935;-49
2023/03/27 08:54:23;;;;;;;;;;;;;;;17.86;48.23;101934.19;5059507;28;19917;-52
2023/03/27 08:56:49;;;;;;;;;;;;;;;18.22;48.16;101934.59;5052224;28;19912;-53
2023/03/27 08:59:20;;;;;;;;;;;;;;;18.50;46.63;101942.31;5054468;28;19944;-53
2023/03/27 09:01:55;;;;;;;;;;;;;;;19.23;44.76;101948.06;5049980;28;19925;-56
2023/03/27 09:04:30;;;;;;;;;;;;;;;18.61;46.04;101948.88;5054585;28;19912;-51
2023/03/27 09:07:16;;;;;;;;;;;;;;;17.52;46.50;101956.00;5050454;28;19925;-52
2023/03/27 09:10:05;;;;;;;;;;;;;;;17.64;47.83;101956.16;5046269;28;19922;-51
2023/03/27 09:13:01;;;;;;;;;;;;;;;17.41;47.80;101968.31;5049493;28;19913;-51
2023/03/27 09:15:33;;;;;;;;;;;;;;;19.00;45.63;101979.38;5044023;28;19948;-51
2023/03/27 09:18:18;;;;;;;;;;;;;;;20.14;43.56;101981.75;5051050;28;20476;-52
2023/03/27 09:20:52;;;;;;;;;;;;;;;19.61;44.63;101979.53;5050631;28;19917;-50
2023/03/27 09:23:25;;;;;;;;;;;;;;;19.34;44.34;101989.88;5056120;28;19923;-53
2023/03/27 09:26:12;;;;;;;;;;;;;;;18.72;44.92;101983.38;5052307;28;19924;-54
2023/03/27 09:29:03;;;;;;;;;;;;;;;20.47;42.79;101985.84;5059523;28;19917;-52
2023/03/27 09:31:35;;;;;;;;;;;;;;;21.54;42.20;101982.19;5057868;28;19920;-50
2023/03/27 09:34:05;;;;;;;;;;;;;;;22.49;40.43;101993.50;5055355;28;19923;-48
2023/03/27 09:36:34;;;;;;;;;;;;;;;23.54;36.65;101998.50;5053716;28;19940;-50
2023/03/27 09:39:06;;;;;;;;;;;;;;;23.74;34.59;102006.09;4992255;28;20019;-52
2023/03/27 09:41:36;;;;;;;;;;;;;;;21.24;36.03;102000.41;4970564;28;19940;-52
2023/03/27 09:44:24;;;;;;;;;;;;;;;20.40;38.46;101995.97;4969918;28;19914;-51
2023/03/27 09:46:53;;;;;;;;;;;;;;;21.89;38.28;102008.50;4971233;28;19914;-52
2023/03/27 09:49:19;;;;;;;;;;;;;;;22.94;34.95;102007.25;4972904;28;19915;-53
2023/03/27 09:51:52;;;;;;;;;;;;;;;24.75;36.03;102014.69;4973394;28;19914;-50
2023/03/27 09:54:48;;;;;;;;;;;;;;;24.75;35.63;102013.84;4977979;28;19956;-56
2023/03/27 09:57:14;;;;;;;;;;;;;;;25.63;31.86;102020.63;4971943;28;19914;-56
2023/03/27 09:59:53;;;;;;;;;;;;;;;24.27;32.94;102024.69;4969631;28;19918;-52
2023/03/27 10:02:24;;;;;;;;;;;;;;;21.21;41.96;102038.94;4970201;28;19941;-48
2023/03/27 10:05:10;;;;;;;;;;;;;;;19.71;47.61;102059.56;4966583;28;19950;-51
2023/03/27 10:07:38;;;;;;;;;;;;;;;18.94;49.68;102041.75;4968300;28;19987;-51
2023/03/27 10:10:24;;;;;;;;;;;;;;;18.81;50.08;102065.22;4970485;28;19921;-51
2023/03/27 10:13:25;;;;;;;;;;;;;;;21.32;47.45;102073.47;4952770;28;19934;-52
2023/03/27 10:15:57;;;;;;;;;;;;;;;20.72;44.77;102075.31;4972052;28;19985;-50
2023/03/27 10:18:28;;;;;;;;;;;;;;;20.77;44.96;102089.03;4982553;28;19919;-53
2023/03/27 10:21:10;;;;;;;;;;;;;;;19.19;45.83;102085.97;4969889;28;19926;-51
2023/03/27 10:23:40;;;;;;;;;;;;;;;17.80;48.85;102083.88;4973388;28;19922;-52
2023/03/27 10:26:10;;;;;;;;;;;;;;;16.84;47.83;102052.63;4975537;28;20005;-52
2023/03/27 10:28:47;;;;;;;;;;;;;;;17.36;48.63;102062.78;4969524;28;19914;-53
2023/03/27 10:31:24;;;;;;;;;;;;;;;17.34;47.10;102065.72;4965657;28;19915;-53
2023/03/27 10:33:55;;;;;;;;;;;;;;;18.78;46.39;102063.78;4962657;28;19970;-52
2023/03/27 10:36:53;;;;;;;;;;;;;;;18.62;45.62;102054.31;4966257;28;19975;-54
2023/03/27 10:39:25;;;;;;;;;;;;;;;19.49;45.05;102070.88;4966991;28;19926;-52
2023/03/27 10:42:09;;;;;;;;;;;;;;;21.62;41.65;102077.09;4964811;28;19918;-57
2023/03/27 10:44:38;;;;;;;;;;;;;;;22.92;39.63;102083.06;4970709;28;19926;-52
2023/03/27 10:47:05;;;;;;;;;;;;;;;25.00;37.73;102081.59;4976949;28;19937;-53
2023/03/27 10:49:44;;;;;;;;;;;;;;;24.38;35.94;102089.28;4964890;28;19990;-53
2023/03/27 10:52:29;;;;;;;;;;;;;;;26.08;35.81;102093.34;4963705;28;19918;-53
2023/03/27 10:55:47;;;;;;;;;;;;;;;27.36;35.31;102091.72;4971644;28;19930;-55
2023/03/27 10:58:34;;;;;;;;;;;;;;;28.19;34.02;102097.66;4970805;28;19915;-54
2023/03/27 11:01:03;;;;;;;;;;;;;;;28.90;31.89;102099.31;4974853;28;19914;-55
2023/03/27 11:03:36;;;;;;;;;;;;;;;29.83;32.07;102098.28;4976716;28;19953;-55
2023/03/27 11:06:08;;;;;;;;;;;;;;;29.64;31.26;102091.91;4974331;28;20004;-54
2023/03/27 11:09:00;;;;;;;;;;;;;;;30.94;30.28;102088.81;4971773;28;19915;-56
2023/03/27 11:11:30;;;;;;;;;;;;;;;29.58;29.87;102091.97;4971460;28;19915;-57
2023/03/27 11:14:01;;;;;;;;;;;;;;;30.82;28.16;102094.00;4970750;28;20013;-57
2023/03/27 11:16:30;;;;;;;;;;;;;;;31.45;30.40;102089.75;4964565;28;19902;-55
2023/03/27 11:19:35;;;;;;;;;;;;;;;28.75;30.96;102078.25;4970922;28;20004;-56
2023/03/27 11:22:33;;;;;;;;;;;;;;;28.28;31.93;102070.38;4973543;28;19925;-57
2023/03/27 11:25:04;;;;;;;;;;;;;;;27.73;29.07;102081.41;4964987;28;19915;-55
2023/03/27 11:27:48;;;;;;;;;;;;;;;26.03;31.38;102083.19;4970750;28;19929;-56
2023/03/27 11:30:17;;;;;;;;;;;;;;;25.05;36.19;102084.38;4967346;28;19965;-55
2023/03/27 11:33:09;;;;;;;;;;;;;;;23.02;37.42;102083.19;4972438;28;19914;-54
2023/03/27 11:35:38;;;;;;;;;;;;;;;22.78;38.27;102085.28;4971035;28;19989;-55
2023/03/27 11:38:31;;;;;;;;;;;;;;;24.75;37.46;102091.28;4984429;28;19960;-55
2023/03/27 11:41:00;;;;;;;;;;;;;;;25.12;35.68;102099.72;4992235;28;19922;-56
2023/03/27 11:43:26;;;;;;;;;;;;;;;26.78;34.41;102095.63;5001522;28;19925;-55
2023/03/27 11:45:58;;;;;;;;;;;;;;;28.38;31.92;102101.66;4971834;28;19914;-56
2023/03/27 11:48:24;;;;;;;;;;;;;;;27.67;30.12;102099.00;4993049;28;19953;-56
2023/03/27 11:51:08;;;;;;;;;;;;;;;26.77;32.04;102088.47;4973949;28;19925;-54
2023/03/27 11:53:53;;;;;;;;;;;;;;;26.98;32.50;102089.28;4979668;28;19936;-56
2023/03/27 11:56:44;;;;;;;;;;;;;;;26.23;32.55;102103.53;4963061;28;19911;-56
2023/03/27 11:59:34;;;;;;;;;;;;;;;26.90;30.54;102104.44;5001017;28;19914;-55
2023/03/27 12:02:21;;;;;;;;;;;;;;;28.55;31.73;102101.25;4984577;28;19928;-56
2023/03/27 12:04:54;;;;;;;;;;;;;;;26.87;34.08;102085.78;4995298;28;19914;-55
2023/03/27 12:08:00;;;;;;;;;;;;;;;25.75;33.25;102094.34;4985424;28;19921;-54
2023/03/27 12:10:32;;;;;;;;;;;;;;;24.92;29.42;102095.78;5009617;28;19940;-54
2023/03/27 12:13:29;;;;;;;;;;;;;;;27.78;31.44;102106.13;4984716;28;19943;-53
2023/03/27 12:16:14;;;;;;;;;;;;;;;28.33;27.56;102113.50;4985429;28;19922;-57
2023/03/27 12:18:58;;;;;;;;;;;;;;;29.98;25.96;102118.44;4989347;28;19981;-55
2023/03/27 12:21:43;;;;;;;;;;;;;;;30.18;25.40;102120.94;4987459;28;19944;-50
2023/03/27 12:24:32;;;;;;;;;;;;;;;31.80;28.85;102116.97;4990895;28;19922;-57
2023/03/27 12:27:33;;;;;;;;;;;;;;;30.48;25.71;102129.88;4986192;28;19928;-54
2023/03/27 12:30:26;;;;;;;;;;;;;;;32.46;27.04;102124.06;4988912;28;20013;-54
2023/03/27 12:33:11;;;;;;;;;;;;;;;30.58;26.91;102120.63;4986999;28;19914;-52
2023/03/27 12:35:40;;;;;;;;;;;;;;;31.73;23.20;102133.13;4991592;28;19918;-56
2023/03/27 12:38:09;;;;;;;;;;;;;;;31.07;24.79;102136.06;4987679;28;19922;-55
2023/03/27 12:40:36;;;;;;;;;;;;;;;32.24;26.42;102124.84;5005168;28;19923;-54
2023/03/27 12:43:10;;;;;;;;;;;;;;;31.20;22.50;102129.78;4988428;28;19929;-55
2023/03/27 12:45:36;;;;;;;;;;;;;;;31.74;22.16;102135.59;4986809;28;19918;-55
2023/03/27 12:48:15;;;;;;;;;;;;;;;33.60;24.51;102143.22;4998031;28;19925;-54
2023/03/27 12:50:52;;;;;;;;;;;;;;;33.80;21.85;102154.84;4998774;28;19945;-56
2023/03/27 12:53:19;;;;;;;;;;;;;;;30.94;24.13;102143.22;4990625;28;19937;-55
2023/03/27 12:55:45;;;;;;;;;;;;;;;28.11;28.74;102158.72;4988343;28;19923;-54
2023/03/27 12:58:33;;;;;;;;;;;;;;;26.37;33.61;102139.47;4987447;28;19918;-55
2023/03/27 13:01:09;;;;;;;;;;;;;;;24.94;37.46;102164.75;4988636;28;19957;-52
2023/03/27 13:03:53;;;;;;;;;;;;;;;21.94;41.24;102152.94;4985742;28;19922;-52
2023/03/27 13:06:34;;;;;;;;;;;;;;;22.33;41.99;102166.78;4987751;28;19914;-55
2023/03/27 13:09:19;;;;;;;;;;;;;;;22.42;39.70;102172.69;4988584;28;19918;-53